Time;durP1;ratioP1;P1;durP2;ratioP2;P2;SDS_P1;SDS_P2;PMS_P1;PMS_P2;Temp;Humidity;BMP_temperature;BMP_pressure;BME280_temperature;BME280_humidity;BME280_pressure;Samples;Min_cycle;Max_cycle;Signal;HPM_P1;HPM_P2
2022/06/15 00:02:11;;;;;;;5.40;2.42;;;15.10;65.30;;;;;;4922834;28;20022;-78
2022/06/15 00:04:37;;;;;;;5.40;2.33;;;15.10;61.50;;;;;;4904727;28;20035;-78
2022/06/15 00:07:03;;;;;;;8.30;3.03;;;14.90;63.10;;;;;;4922099;28;20081;-78
2022/06/15 00:09:28;;;;;;;6.93;2.47;;;14.70;64.60;;;;;;4906514;28;20047;-77
2022/06/15 00:11:54;;;;;;;8.23;2.78;;;;;;;;;;4924685;28;20035;-77
2022/06/15 00:14:23;;;;;;;8.80;4.20;;;14.80;64.40;;;;;;4922608;28;20026;-77
2022/06/15 00:16:49;;;;;;;5.78;2.25;;;14.90;63.40;;;;;;4933429;28;20094;-77
2022/06/15 00:19:14;;;;;;;4.82;2.42;;;14.80;62.00;;;;;;4934393;28;20064;-77
2022/06/15 00:21:40;;;;;;;5.55;2.05;;;14.90;61.70;;;;;;4919934;29;20038;-78
2022/06/15 00:24:06;;;;;;;6.55;3.00;;;14.90;61.90;;;;;;4921377;28;20352;-77
2022/06/15 00:26:31;;;;;;;8.98;3.17;;;14.90;61.10;;;;;;4906957;28;20049;-77
2022/06/15 00:28:57;;;;;;;8.82;2.97;;;14.60;63.30;;;;;;4941114;28;20062;-77
2022/06/15 00:31:23;;;;;;;12.07;4.32;;;14.40;63.30;;;;;;4937768;28;20039;-77
2022/06/15 00:33:48;;;;;;;5.22;2.80;;;14.30;63.80;;;;;;4936663;28;20043;-77
2022/06/15 00:36:16;;;;;;;7.82;2.90;;;14.40;68.50;;;;;;4922572;28;20050;-77
2022/06/15 00:38:47;;;;;;;6.15;2.50;;;14.40;72.10;;;;;;4909672;28;20036;-77
2022/06/15 00:41:25;;;;;;;7.00;3.00;;;14.40;63.60;;;;;;4919628;28;20033;-77
2022/06/15 00:43:56;;;;;;;6.35;2.78;;;14.50;66.00;;;;;;4923197;28;20039;-77
2022/06/15 00:46:24;;;;;;;5.95;3.20;;;14.50;63.50;;;;;;4925150;28;20038;-77
2022/06/15 00:48:54;;;;;;;5.95;3.20;;;14.30;69.20;;;;;;4937862;28;20123;-77
2022/06/15 00:51:20;;;;;;;5.13;2.70;;;14.30;64.50;;;;;;4928414;28;20097;-76
2022/06/15 00:53:46;;;;;;;8.40;2.45;;;14.50;66.60;;;;;;4923565;28;20031;-77
2022/06/15 00:56:11;;;;;;;6.05;2.85;;;14.50;65.10;;;;;;4928111;28;20035;-77
2022/06/15 00:58:38;;;;;;;7.30;3.30;;;14.40;68.20;;;;;;4924313;28;20046;-77
2022/06/15 01:01:05;;;;;;;9.23;3.92;;;14.30;62.00;;;;;;4906613;28;20066;-76
2022/06/15 01:03:30;;;;;;;8.65;3.60;;;14.30;62.40;;;;;;4938432;28;20031;-79
2022/06/15 01:06:02;;;;;;;4.03;2.00;;;14.20;61.90;;;;;;4955463;28;20061;-77
2022/06/15 01:08:56;;;;;;;7.85;3.08;;;14.20;61.80;;;;;;4938179;28;20042;-77
2022/06/15 01:11:37;;;;;;;8.30;3.35;;;14.30;62.50;;;;;;4935951;28;20130;-77
2022/06/15 01:14:42;;;;;;;7.00;3.30;;;14.10;71.00;;;;;;4921797;28;20376;-76
2022/06/15 01:17:55;;;;;;;7.18;3.38;;;14.10;69.20;;;;;;4913781;28;20089;-76
2022/06/15 01:20:40;;;;;;;12.63;3.70;;;;;;;;;;4935158;28;20023;-76
2022/06/15 01:23:42;;;;;;;8.45;3.65;;;13.70;84.80;;;;;;4935603;28;21657;-76
2022/06/15 01:26:45;;;;;;;6.90;3.17;;;13.60;87.90;;;;;;4941455;28;20061;-76
2022/06/15 01:29:13;;;;;;;5.07;3.08;;;13.40;86.90;;;;;;4954071;28;20380;-76
2022/06/15 01:31:47;;;;;;;8.00;3.47;;;13.40;81.40;;;;;;4950833;28;20431;-76
2022/06/15 01:34:39;;;;;;;10.10;4.00;;;13.30;84.00;;;;;;4918359;28;20399;-76
2022/06/15 01:37:16;;;;;;;9.20;3.40;;;13.20;84.60;;;;;;4931104;28;20042;-76
2022/06/15 01:39:58;;;;;;;7.93;3.85;;;13.20;89.10;;;;;;4938438;28;20034;-76
2022/06/15 01:42:31;;;;;;;4.25;2.35;;;13.20;84.00;;;;;;4920953;28;20062;-76
2022/06/15 01:45:00;;;;;;;8.98;3.40;;;13.40;79.80;;;;;;4937694;28;20038;-76
2022/06/15 01:47:27;;;;;;;9.85;4.10;;;13.40;81.80;;;;;;4907733;28;20520;-76
2022/06/15 01:50:08;;;;;;;4.43;3.22;;;13.40;80.90;;;;;;4921782;28;20477;-78
2022/06/15 01:52:38;;;;;;;3.50;2.47;;;13.40;79.10;;;;;;4922681;28;20030;-76
2022/06/15 01:55:13;;;;;;;8.00;3.25;;;13.60;78.10;;;;;;4914896;28;21024;-76
2022/06/15 01:57:38;;;;;;;10.65;4.88;;;13.40;78.40;;;;;;4907797;28;20031;-76
2022/06/15 02:00:08;;;;;;;7.15;4.03;;;13.40;83.20;;;;;;4925176;28;20035;-76
2022/06/15 02:02:40;;;;;;;6.00;3.75;;;13.10;86.30;;;;;;4922330;28;20494;-78
2022/06/15 02:05:18;;;;;;;8.07;4.47;;;12.90;88.50;;;;;;4922148;28;20038;-76
2022/06/15 02:08:01;;;;;;;8.35;4.55;;;12.90;90.40;;;;;;4921583;28;20114;-78
2022/06/15 02:10:32;;;;;;;10.88;4.40;;;12.90;86.60;;;;;;4939462;28;20055;-78
2022/06/15 02:13:03;;;;;;;10.07;4.88;;;12.70;90.90;;;;;;4917388;28;20031;-77
2022/06/15 02:15:29;;;;;;;6.82;4.53;;;13.00;91.20;;;;;;4934292;28;20031;-78
2022/06/15 02:17:57;;;;;;;8.95;4.65;;;12.80;89.70;;;;;;4920829;28;20032;-78
2022/06/15 02:20:28;;;;;;;7.00;4.75;;;12.80;87.80;;;;;;4926272;28;20035;-78
2022/06/15 02:22:54;;;;;;;4.28;3.88;;;13.20;83.10;;;;;;4913907;28;20102;-78
2022/06/15 02:25:21;;;;;;;6.97;3.53;;;13.10;81.60;;;;;;4921544;28;20114;-76
2022/06/15 02:27:47;;;;;;;8.30;4.15;;;13.20;80.20;;;;;;4922526;28;20475;-76
2022/06/15 02:30:16;;;;;;;12.48;4.90;;;13.10;83.30;;;;;;4910631;28;20066;-76
2022/06/15 02:32:42;;;;;;;10.50;5.32;;;12.80;87.70;;;;;;4926242;28;20035;-76
2022/06/15 02:35:08;;;;;;;15.07;4.93;;;12.70;90.70;;;;;;4924907;28;20033;-76
2022/06/15 02:37:34;;;;;;;7.63;5.22;;;12.30;91.90;;;;;;4922424;28;20387;-76
2022/06/15 02:39:59;;;;;;;10.93;4.03;;;12.50;91.20;;;;;;4927381;28;20032;-75
2022/06/15 02:42:33;;;;;;;5.85;3.58;;;12.60;84.90;;;;;;4908264;28;20102;-75
2022/06/15 02:45:05;;;;;;;5.38;3.40;;;12.70;83.50;;;;;;4915712;28;20032;-76
2022/06/15 02:47:31;;;;;;;5.97;3.83;;;12.70;83.10;;;;;;4919858;28;20030;-75
2022/06/15 02:49:58;;;;;;;7.05;4.63;;;12.60;83.20;;;;;;4906329;28;20543;-76
2022/06/15 02:52:31;;;;;;;7.50;4.20;;;12.50;85.20;;;;;;4926522;28;20402;-76
2022/06/15 02:54:56;;;;;;;8.27;4.97;;;12.60;90.60;;;;;;4939460;28;20042;-78
2022/06/15 02:57:22;;;;;;;9.70;4.70;;;12.40;91.80;;;;;;4906645;28;20110;-78
2022/06/15 02:59:48;;;;;;;8.52;4.80;;;12.10;92.80;;;;;;4912503;28;20035;-78
2022/06/15 03:02:14;;;;;;;10.77;5.20;;;12.00;91.60;;;;;;4942964;28;20641;-76
2022/06/15 03:04:44;;;;;;;15.65;5.45;;;11.90;92.20;;;;;;4922747;28;20125;-75
2022/06/15 03:07:11;;;;;;;8.75;4.85;;;11.90;91.30;;;;;;4921964;28;20486;-76
2022/06/15 03:09:37;;;;;;;9.07;4.80;;;12.10;91.10;;;;;;4905935;28;20062;-76
2022/06/15 03:12:03;;;;;;;14.48;5.22;;;11.90;91.20;;;;;;4912682;28;20129;-75
2022/06/15 03:14:29;;;;;;;8.25;4.97;;;11.80;91.40;;;;;;4926176;28;20127;-76
2022/06/15 03:16:54;;;;;;;11.10;4.90;;;12.00;92.40;;;;;;4923312;28;20033;-76
2022/06/15 03:19:20;;;;;;;7.05;5.00;;;11.70;89.60;;;;;;4925981;28;20039;-76
2022/06/15 03:21:45;;;;;;;15.38;6.88;;;11.60;92.50;;;;;;4924720;28;20368;-76
2022/06/15 03:24:11;;;;;;;14.32;6.25;;;11.60;93.30;;;;;;4927595;28;20404;-76
2022/06/15 03:26:37;;;;;;;10.18;5.97;;;11.50;93.80;;;;;;4940665;28;20059;-76
2022/06/15 03:29:02;;;;;;;9.68;5.20;;;11.50;94.20;;;;;;4925004;28;20043;-75
2022/06/15 03:31:29;;;;;;;9.07;5.50;;;11.70;92.30;;;;;;4943257;28;20507;-76
2022/06/15 03:33:54;;;;;;;8.25;4.80;;;11.80;83.10;;;;;;4908511;28;20665;-76
2022/06/15 03:36:20;;;;;;;7.15;5.93;;;11.80;88.80;;;;;;4923554;28;20055;-76
2022/06/15 03:38:46;;;;;;;11.30;5.60;;;11.60;90.60;;;;;;4911134;28;20035;-76
2022/06/15 03:41:11;;;;;;;12.13;5.75;;;11.60;92.00;;;;;;4912746;28;20402;-75
2022/06/15 03:43:37;;;;;;;10.93;6.13;;;11.50;93.10;;;;;;4907900;28;22391;-76
2022/06/15 03:46:03;;;;;;;7.90;5.90;;;11.30;94.20;;;;;;4922399;28;20044;-75
2022/06/15 03:48:29;;;;;;;9.80;5.68;;;11.40;93.50;;;;;;4939159;28;20082;-76
2022/06/15 03:50:54;;;;;;;11.68;5.88;;;11.40;94.30;;;;;;4897552;28;20491;-75
2022/06/15 03:53:20;;;;;;;7.50;5.13;;;11.50;93.10;;;;;;4955997;28;20410;-76
2022/06/15 03:55:45;;;;;;;9.02;5.32;;;11.50;92.60;;;;;;4922509;28;20046;-78
2022/06/15 03:58:16;;;;;;;10.85;5.72;;;11.80;87.20;;;;;;4921281;28;20083;-75
2022/06/15 04:00:42;;;;;;;11.88;6.55;;;11.90;91.80;;;;;;4915635;29;20031;-75
2022/06/15 04:03:07;;;;;;;12.55;7.00;;;12.00;92.70;;;;;;4907380;28;20098;-76
2022/06/15 04:05:38;;;;;;;17.83;6.45;;;12.10;90.80;;;;;;4940728;28;20031;-76
2022/06/15 04:10:48;;;;;;;10.85;6.30;;;12.30;88.00;;;;;;4929014;28;20067;-78
2022/06/15 04:13:15;;;;;;;12.35;6.03;;;12.50;90.10;;;;;;4926990;28;20051;-75
2022/06/15 04:15:41;;;;;;;13.95;6.93;;;12.50;90.40;;;;;;4924355;28;20575;-75
2022/06/15 04:18:06;;;;;;;10.60;5.28;;;12.70;87.20;;;;;;4928547;28;20090;-78
2022/06/15 04:20:32;;;;;;;5.43;4.20;;;12.80;90.60;;;;;;4923071;28;20034;-78
2022/06/15 04:23:02;;;;;;;9.80;4.63;;;13.00;81.80;;;;;;4943591;28;20065;-78
2022/06/15 04:25:31;;;;;;;11.98;5.90;;;13.20;81.30;;;;;;4923915;28;20032;-75
2022/06/15 04:27:56;;;;;;;8.93;5.20;;;13.30;82.10;;;;;;4923981;28;20106;-76
2022/06/15 04:30:22;;;;;;;8.65;4.82;;;13.50;81.80;;;;;;4925669;28;20124;-76
2022/06/15 04:32:48;;;;;;;9.57;5.65;;;13.70;80.80;;;;;;4928480;28;20070;-75
2022/06/15 04:35:14;;;;;;;9.60;5.53;;;13.90;82.50;;;;;;4925951;28;20113;-78
2022/06/15 04:37:39;;;;;;;12.15;5.65;;;14.10;82.90;;;;;;4907086;28;20050;-78
2022/06/15 04:40:06;;;;;;;9.70;5.63;;;14.30;82.10;;;;;;4923255;28;20031;-78
2022/06/15 04:42:31;;;;;;;9.73;5.68;;;14.50;82.20;;;;;;4942025;28;20495;-76
2022/06/15 04:44:57;;;;;;;8.55;4.45;;;14.70;81.60;;;;;;4940782;28;20094;-76
2022/06/15 04:47:22;;;;;;;13.90;5.40;;;14.90;81.80;;;;;;4935236;28;20036;-75
2022/06/15 04:49:48;;;;;;;10.23;5.38;;;15.10;82.80;;;;;;4920962;28;20081;-76
2022/06/15 04:52:13;;;;;;;12.25;5.00;;;15.30;82.30;;;;;;4926068;28;20119;-78
2022/06/15 04:54:39;;;;;;;11.77;5.72;;;15.60;82.80;;;;;;4958398;28;20035;-76
2022/06/15 04:57:05;;;;;;;8.00;5.03;;;15.70;82.40;;;;;;4937795;28;20039;-76
2022/06/15 04:59:30;;;;;;;9.10;6.07;;;15.90;82.40;;;;;;4904951;28;20105;-76
2022/06/15 05:01:56;;;;;;;8.18;5.22;;;16.20;81.70;;;;;;4936451;28;20049;-76
2022/06/15 05:04:22;;;;;;;12.27;5.70;;;16.40;80.70;;;;;;4929485;28;20395;-76
2022/06/15 05:06:47;;;;;;;8.98;5.38;;;16.60;80.60;;;;;;4905222;28;20042;-76
2022/06/15 05:09:14;;;;;;;8.45;4.82;;;16.90;79.40;;;;;;4938304;28;20134;-76
2022/06/15 05:11:39;;;;;;;6.93;5.22;;;17.10;78.60;;;;;;4920144;28;20539;-76
2022/06/15 05:14:05;;;;;;;12.65;4.38;;;17.30;79.00;;;;;;4924811;28;20114;-78
2022/06/15 05:16:30;;;;;;;5.13;3.10;;;17.60;76.30;;;;;;4911586;28;20495;-76
2022/06/15 05:18:56;;;;;;;9.00;5.20;;;17.80;75.80;;;;;;4924264;29;20024;-76
2022/06/15 05:21:21;;;;;;;7.97;4.95;;;18.00;76.80;;;;;;4924639;28;20402;-76
2022/06/15 05:23:47;;;;;;;9.35;4.88;;;18.20;76.40;;;;;;4940659;28;20035;-76
2022/06/15 05:26:13;;;;;;;16.00;5.47;;;18.50;77.30;;;;;;4909473;28;20030;-76
2022/06/15 05:28:41;;;;;;;10.90;4.80;;;18.80;77.70;;;;;;4936767;28;20094;-76
2022/06/15 05:31:14;;;;;;;10.30;4.60;;;19.00;76.70;;;;;;4923494;28;20641;-75
2022/06/15 05:33:40;;;;;;;7.43;4.75;;;19.30;75.90;;;;;;4939332;28;20031;-77
2022/06/15 05:36:07;;;;;;;6.57;3.92;;;19.50;75.30;;;;;;4926381;28;20379;-77
2022/06/15 05:38:33;;;;;;;11.52;4.78;;;19.70;74.90;;;;;;4907676;28;20035;-77
2022/06/15 05:40:59;;;;;;;8.10;5.22;;;19.90;74.40;;;;;;4916179;28;20072;-77
2022/06/15 05:43:24;;;;;;;7.00;4.40;;;20.20;74.50;;;;;;4907799;28;20083;-77
2022/06/15 05:45:50;;;;;;;9.35;4.50;;;20.40;74.20;;;;;;4939591;28;20085;-77
2022/06/15 05:48:15;;;;;;;7.85;4.25;;;20.60;73.50;;;;;;4911026;28;20099;-77
2022/06/15 05:50:41;;;;;;;12.10;4.85;;;20.80;72.80;;;;;;4919822;28;20023;-77
2022/06/15 05:53:06;;;;;;;7.85;4.75;;;21.10;72.50;;;;;;4939146;28;20046;-77
2022/06/15 05:55:32;;;;;;;10.52;4.65;;;21.30;71.90;;;;;;4922474;28;20298;-77
2022/06/15 05:57:57;;;;;;;10.77;4.68;;;21.50;71.50;;;;;;4924116;28;20081;-77
2022/06/15 06:00:25;;;;;;;9.48;5.10;;;21.70;71.20;;;;;;4927120;28;20035;-77
2022/06/15 06:02:51;;;;;;;10.75;4.70;;;21.90;70.80;;;;;;4921515;28;20024;-77
2022/06/15 06:05:17;;;;;;;7.72;4.40;;;22.20;71.70;;;;;;4925235;28;20100;-77
2022/06/15 06:07:43;;;;;;;11.02;4.40;;;22.20;72.70;;;;;;4936079;28;20043;-78
2022/06/15 06:10:09;;;;;;;9.15;4.50;;;22.70;72.60;;;;;;4906458;28;20102;-77
2022/06/15 06:12:34;;;;;;;8.50;4.32;;;22.80;70.40;;;;;;4938614;28;20050;-77
2022/06/15 06:15:00;;;;;;;10.95;5.20;;;23.00;70.30;;;;;;4915480;28;20612;-77
2022/06/15 06:17:26;;;;;;;3.15;2.45;;;23.10;67.10;;;;;;4916606;28;20500;-77
2022/06/15 06:19:52;;;;;;;7.18;3.90;;;23.20;68.30;;;;;;4933267;28;20062;-78
2022/06/15 06:22:17;;;;;;;9.60;4.22;;;23.40;69.20;;;;;;4922080;28;21104;-78
2022/06/15 06:24:43;;;;;;;7.40;4.72;;;23.40;67.50;;;;;;4904716;28;20403;-78
2022/06/15 06:27:11;;;;;;;7.53;4.05;;;23.80;66.90;;;;;;4919338;29;20538;-78
2022/06/15 06:29:37;;;;;;;7.57;3.55;;;23.90;65.60;;;;;;4907072;28;20035;-78
2022/06/15 06:32:03;;;;;;;6.97;4.47;;;24.20;66.30;;;;;;4937644;28;20829;-79
2022/06/15 06:34:31;;;;;;;5.82;4.00;;;24.30;65.80;;;;;;4904680;28;20526;-78
2022/06/15 06:36:58;;;;;;;7.05;4.15;;;24.60;64.20;;;;;;4925403;28;20027;-79
2022/06/15 06:39:25;;;;;;;10.48;4.65;;;24.70;65.60;;;;;;4911467;28;20038;-78
2022/06/15 06:41:51;;;;;;;8.10;3.90;;;24.90;62.30;;;;;;4922004;28;20043;-79
2022/06/15 06:44:17;;;;;;;6.88;3.30;;;25.00;61.90;;;;;;4924208;28;20035;-79
2022/06/15 06:46:44;;;;;;;10.27;4.88;;;25.30;61.90;;;;;;4918855;28;20106;-79
2022/06/15 06:49:10;;;;;;;8.02;3.63;;;25.50;61.70;;;;;;4925342;28;20039;-79
2022/06/15 06:51:36;;;;;;;10.25;3.95;;;25.60;60.70;;;;;;4936697;28;20101;-79
2022/06/15 06:54:02;;;;;;;11.43;4.03;;;25.80;60.10;;;;;;4923099;28;20035;-79
2022/06/15 06:56:28;;;;;;;8.45;4.18;;;25.90;59.80;;;;;;4917135;28;20145;-79
2022/06/15 06:58:55;;;;;;;6.95;3.45;;;26.20;59.50;;;;;;4908368;28;20040;-79
2022/06/15 07:01:21;;;;;;;8.68;4.30;;;26.20;59.30;;;;;;4909137;28;20768;-79
2022/06/15 07:03:47;;;;;;;9.25;4.22;;;26.40;58.90;;;;;;4924076;28;20024;-79
2022/06/15 07:06:13;;;;;;;10.32;4.20;;;26.70;58.50;;;;;;4922678;28;20036;-79
2022/06/15 07:08:39;;;;;;;8.50;5.15;;;26.90;56.90;;;;;;4903317;28;20463;-80
2022/06/15 07:11:14;;;;;;;5.50;2.38;;;26.90;57.30;;;;;;4919837;28;20043;-80
2022/06/15 07:13:39;;;;;;;6.47;2.95;;;27.00;56.70;;;;;;4924642;28;20028;-80
2022/06/15 07:16:06;;;;;;;7.18;2.80;;;26.70;55.60;;;;;;4911947;28;20487;-80
2022/06/15 07:18:31;;;;;;;6.50;4.53;;;26.90;58.50;;;;;;4910900;28;20035;-80
2022/06/15 07:21:02;;;;;;;6.00;2.58;;;27.40;57.20;;;;;;4902857;28;20027;-80
2022/06/15 07:23:29;;;;;;;7.15;2.88;;;27.40;56.70;;;;;;4905457;28;20035;-80
2022/06/15 07:25:54;;;;;;;9.98;3.80;;;27.70;57.30;;;;;;4925879;28;20039;-81
2022/06/15 07:28:20;;;;;;;9.02;3.42;;;27.90;56.30;;;;;;4922701;28;20193;-80
2022/06/15 07:30:45;;;;;;;7.60;3.20;;;28.10;55.80;;;;;;4892459;28;20040;-80
2022/06/15 07:33:11;;;;;;;5.18;3.33;;;28.20;56.00;;;;;;4906074;28;20031;-81
2022/06/15 07:35:38;;;;;;;7.90;3.72;;;28.50;54.80;;;;;;4924677;28;20032;-81
2022/06/15 07:38:04;;;;;;;11.38;4.00;;;28.70;54.80;;;;;;4936624;28;20023;-81
2022/06/15 07:40:30;;;;;;;5.00;2.72;;;28.90;53.70;;;;;;4924537;28;20042;-81
2022/06/15 07:42:56;;;;;;;6.50;2.88;;;28.90;53.60;;;;;;4906808;29;20035;-83
2022/06/15 07:45:23;;;;;;;9.32;2.40;;;29.10;53.50;;;;;;4902525;28;20062;-83
2022/06/15 07:50:33;;;;;;;6.85;3.50;;;29.30;52.90;;;;;;4923383;28;20050;-83
2022/06/15 07:53:01;;;;;;;8.05;3.90;;;29.40;52.00;;;;;;4906055;28;20368;-83
2022/06/15 07:55:29;;;;;;;4.03;2.63;;;29.60;51.80;;;;;;4919742;28;20543;-83
2022/06/15 07:57:55;;;;;;;8.85;2.88;;;29.60;51.90;;;;;;4938485;28;20118;-84
2022/06/15 08:00:21;;;;;;;9.75;3.10;;;29.80;50.30;;;;;;4919959;28;20034;-83
2022/06/15 08:02:47;;;;;;;10.80;4.40;;;29.70;51.20;;;;;;4919973;28;20387;-84
2022/06/15 08:05:13;;;;;;;8.55;3.22;;;29.70;51.20;;;;;;4935884;28;20146;-84
2022/06/15 08:07:38;;;;;;;9.27;3.17;;;29.90;50.00;;;;;;4902985;28;20053;-84
2022/06/15 08:10:05;;;;;;;15.57;4.82;;;30.00;50.40;;;;;;4917421;29;20042;-85
2022/06/15 08:12:31;;;;;;;8.73;2.67;;;30.20;49.10;;;;;;4901115;28;20376;-86
2022/06/15 08:14:58;;;;;;;7.80;3.53;;;30.20;50.20;;;;;;4920527;29;20122;-86
2022/06/15 08:17:33;;;;;;;7.85;3.17;;;30.10;50.10;;;;;;4908212;28;20032;-87
2022/06/15 08:20:19;;;;;;;11.68;2.70;;;30.30;49.00;;;;;;4907701;28;20116;-85
2022/06/15 08:22:47;;;;;;;10.65;3.33;;;30.40;50.10;;;;;;4912624;28;20035;-86
2022/06/15 08:25:19;;;;;;;9.40;3.90;;;30.50;49.10;;;;;;4897516;28;20038;-86
2022/06/15 08:27:45;;;;;;;11.30;2.88;;;30.90;48.70;;;;;;4901179;28;20039;-87
2022/06/15 08:30:11;;;;;;;9.05;2.95;;;30.80;47.70;;;;;;4902650;29;20031;-88
2022/06/15 08:32:37;;;;;;;3.70;1.83;;;30.80;48.70;;;;;;4907165;28;20043;-87
2022/06/15 08:35:03;;;;;;;4.82;2.08;;;30.90;48.50;;;;;;4906436;28;20035;-86
2022/06/15 08:37:29;;;;;;;5.93;2.65;;;30.90;49.00;;;;;;4905618;28;20039;-86
2022/06/15 08:39:54;;;;;;;6.47;2.25;;;31.20;47.80;;;;;;4905335;28;20039;-87
2022/06/15 08:42:45;;;;;;;9.23;2.58;;;31.20;47.60;;;;;;4904844;28;20055;-85
2022/06/15 08:45:16;;;;;;;9.65;2.58;;;31.20;46.60;;;;;;4935765;29;20248;-85
2022/06/15 08:47:53;;;;;;;7.40;2.22;;;31.20;47.20;;;;;;4938227;29;20506;-84
2022/06/15 08:50:19;;;;;;;10.48;2.08;;;31.30;46.40;;;;;;4935508;28;20114;-83
2022/06/15 08:52:48;;;;;;;4.82;2.05;;;31.60;46.80;;;;;;4934828;28;20114;-83
2022/06/15 08:55:24;;;;;;;10.70;2.60;;;31.60;46.10;;;;;;4920252;28;20410;-83
2022/06/15 08:57:54;;;;;;;6.32;1.92;;;31.70;45.70;;;;;;4914586;28;20081;-82
2022/06/15 09:00:21;;;;;;;9.88;2.40;;;31.60;46.90;;;;;;4929906;29;20036;-83
2022/06/15 09:02:55;;;;;;;5.85;1.67;;;31.80;46.40;;;;;;4916935;28;20456;-82
2022/06/15 09:05:31;;;;;;;6.88;1.73;;;31.90;46.10;;;;;;4936661;28;20541;-82
2022/06/15 09:08:07;;;;;;;6.40;2.83;;;32.00;46.70;;;;;;4933181;28;20426;-82
2022/06/15 09:10:47;;;;;;;8.80;2.30;;;32.10;45.90;;;;;;4924327;28;20047;-82
2022/06/15 09:13:39;;;;;;;5.15;2.28;;;32.20;45.40;;;;;;4924960;28;20031;-81
2022/06/15 09:16:20;;;;;;;3.17;2.05;;;32.30;45.80;;;;;;4913366;28;20510;-81
2022/06/15 09:18:53;;;;;;;8.55;2.88;;;32.40;45.90;;;;;;4949553;28;20407;-81
2022/06/15 09:21:20;;;;;;;5.55;2.30;;;32.70;45.30;;;;;;4918184;29;20031;-80
2022/06/15 09:24:03;;;;;;;10.07;2.40;;;32.80;44.20;;;;;;4917264;28;20403;-81
2022/06/15 09:26:38;;;;;;;4.72;2.15;;;33.00;44.30;;;;;;4921591;28;20044;-79
2022/06/15 09:29:14;;;;;;;6.45;2.92;;;32.90;44.90;;;;;;4901794;29;20032;-81
2022/06/15 09:32:08;;;;;;;7.10;2.78;;;33.10;43.20;;;;;;4921091;28;20089;-81
2022/06/15 09:34:35;;;;;;;4.85;2.47;;;33.00;42.50;;;;;;4917366;28;20063;-81
2022/06/15 09:37:00;;;;;;;5.85;2.40;;;33.00;43.60;;;;;;4914985;28;20051;-80
2022/06/15 09:39:27;;;;;;;5.80;2.65;;;33.10;43.20;;;;;;4901144;28;20069;-80
2022/06/15 09:41:55;;;;;;;6.28;2.67;;;33.10;43.00;;;;;;4902663;28;20430;-80
2022/06/15 09:44:40;;;;;;;12.35;3.20;;;33.20;43.10;;;;;;4918094;28;20392;-80
2022/06/15 09:47:33;;;;;;;4.80;2.53;;;33.10;43.00;;;;;;4900956;28;20046;-80
2022/06/15 09:50:11;;;;;;;4.88;1.90;;;33.30;44.20;;;;;;4949389;28;20126;-80
2022/06/15 09:52:41;;;;;;;12.82;4.07;;;33.50;43.40;;;;;;4935471;28;20054;-79
2022/06/15 09:55:25;;;;;;;7.70;2.85;;;33.40;42.80;;;;;;4930998;28;20150;-80
2022/06/15 09:57:51;;;;;;;6.10;2.85;;;33.50;42.60;;;;;;4949233;28;20039;-80
2022/06/15 10:00:17;;;;;;;5.38;2.40;;;33.70;43.10;;;;;;4906173;28;20031;-80
2022/06/15 10:02:45;;;;;;;8.85;3.92;;;33.70;42.80;;;;;;4915905;28;20500;-80
2022/06/15 10:05:24;;;;;;;8.27;3.35;;;33.90;41.40;;;;;;4932690;28;20122;-79
2022/06/15 10:07:50;;;;;;;10.68;4.65;;;34.00;41.70;;;;;;4920369;28;20043;-79
2022/06/15 10:10:27;;;;;;;7.13;2.33;;;34.40;40.20;;;;;;4922572;28;20042;-80
2022/06/15 10:13:03;;;;;;;7.30;3.30;;;34.10;41.50;;;;;;4917827;28;20555;-80
2022/06/15 10:15:48;;;;;;;9.93;4.78;;;34.20;41.40;;;;;;4907896;28;20083;-80
2022/06/15 10:18:40;;;;;;;;;;;34.10;41.30;;;;;;4917204;28;20494;-80
2022/06/15 10:21:14;;;;;;;7.35;3.65;;;34.30;41.10;;;;;;4931671;28;20037;-80
2022/06/15 10:23:58;;;;;;;10.73;4.43;;;34.60;41.10;;;;;;4948347;28;20039;-81
2022/06/15 10:26:35;;;;;;;7.63;5.03;;;34.60;40.50;;;;;;4950829;28;20369;-81
2022/06/15 10:29:20;;;;;;;8.82;4.18;;;34.60;39.40;;;;;;4949836;28;20107;-81
2022/06/15 10:32:05;;;;;;;7.45;3.30;;;34.60;39.80;;;;;;4945111;28;20491;-80
2022/06/15 10:34:33;;;;;;;11.23;4.22;;;34.70;40.40;;;;;;4934351;28;20028;-82
2022/06/15 10:37:06;;;;;;;7.03;3.25;;;34.90;39.70;;;;;;4931359;28;20817;-82
2022/06/15 10:39:37;;;;;;;9.93;4.22;;;34.80;39.50;;;;;;4893708;28;20034;-82
2022/06/15 10:42:19;;;;;;;10.40;4.10;;;34.80;39.10;;;;;;4903003;29;20038;-81
2022/06/15 10:44:56;;;;;;;5.18;2.78;;;35.00;38.60;;;;;;4913805;28;20178;-80
2022/06/15 10:47:24;;;;;;;4.38;2.53;;;35.00;39.60;;;;;;4919149;28;20388;-80
2022/06/15 10:49:55;;;;;;;6.85;2.67;;;35.00;39.90;;;;;;4922274;28;20042;-79
2022/06/15 10:52:37;;;;;;;6.43;2.60;;;35.10;39.80;;;;;;4933012;28;20034;-79
2022/06/15 11:03:40;;;;;;;3.60;1.80;;;35.80;40.90;;;;;;4925499;28;20050;-79
2022/06/15 11:06:06;;;;;;;2.45;1.63;;;36.00;40.10;;;;;;4918922;29;20023;-78
2022/06/15 11:08:32;;;;;;;10.60;3.15;;;35.90;40.90;;;;;;4919767;29;20050;-79
2022/06/15 11:11:20;;;;;;;5.90;2.33;;;36.10;39.70;;;;;;4924521;28;20408;-79
2022/06/15 11:13:53;;;;;;;8.18;2.90;;;36.40;37.70;;;;;;4924800;28;20483;-78
2022/06/15 11:19:11;;;;;;;6.82;3.05;;;36.50;39.40;;;;;;4942710;28;20074;-81
2022/06/15 11:21:47;;;;;;;3.75;2.50;;;36.70;37.80;;;;;;4924135;28;20028;-81
2022/06/15 11:24:25;;;;;;;10.25;3.60;;;36.80;37.20;;;;;;4912411;28;20039;-82
2022/06/15 11:27:25;;;;;;;5.38;2.47;;;36.80;37.20;;;;;;4933696;28;20035;-81
2022/06/15 11:30:02;;;;;;;7.25;2.30;;;36.80;37.30;;;;;;4937209;28;20039;-80
2022/06/15 11:32:54;;;;;;;4.25;2.78;;;36.80;38.10;;;;;;4933207;28;20046;-81
2022/06/15 11:35:38;;;;;;;4.15;2.10;;;37.10;37.20;;;;;;4914776;28;20038;-81
2022/06/15 11:38:16;;;;;;;7.32;2.67;;;37.20;35.80;;;;;;4902440;28;20518;-80
2022/06/15 11:40:49;;;;;;;12.23;3.88;;;37.20;35.90;;;;;;4932536;28;20027;-79
2022/06/15 11:43:22;;;;;;;4.90;2.40;;;37.20;35.60;;;;;;4935404;28;20027;-81
2022/06/15 11:46:23;;;;;;;3.50;1.90;;;37.20;35.90;;;;;;4934986;28;20082;-81
2022/06/15 11:48:51;;;;;;;4.13;2.10;;;37.20;37.30;;;;;;4931798;28;20446;-82
2022/06/15 11:51:35;;;;;;;5.05;2.17;;;37.50;35.90;;;;;;4934695;28;20043;-81
2022/06/15 11:54:19;;;;;;;4.53;2.00;;;37.70;34.80;;;;;;4925629;28;20044;-82
2022/06/15 11:56:52;;;;;;;6.05;2.38;;;37.70;34.60;;;;;;4935321;28;20031;-82
2022/06/15 11:59:45;;;;;;;4.15;1.48;;;37.80;34.70;;;;;;4920605;29;20032;-79
2022/06/15 12:02:30;;;;;;;4.57;1.90;;;37.80;35.20;;;;;;4933323;29;20043;-80
2022/06/15 12:05:17;;;;;;;3.95;2.20;;;37.70;35.90;;;;;;4933866;28;20699;-81
2022/06/15 12:07:53;;;;;;;5.70;3.20;;;38.00;35.70;;;;;;4919898;28;20038;-82
2022/06/15 12:10:37;;;;;;;9.70;2.95;;;38.10;33.80;;;;;;4920962;29;20031;-82
2022/06/15 12:13:06;;;;;;;5.32;1.73;;;38.20;33.80;;;;;;4937293;28;20041;-82
2022/06/15 12:15:40;;;;;;;4.63;1.73;;;38.20;35.00;;;;;;4952707;28;20364;-82
2022/06/15 12:18:19;;;;;;;3.75;1.40;;;38.50;36.10;;;;;;4934935;28;20110;-82
2022/06/15 12:21:02;;;;;;;6.47;2.20;;;38.50;36.20;;;;;;4919425;28;20039;-80
2022/06/15 12:23:38;;;;;;;5.90;1.70;;;38.50;35.10;;;;;;4936881;28;20410;-82
2022/06/15 12:26:35;;;;;;;5.63;2.00;;;38.70;35.90;;;;;;4918992;28;20430;-83
2022/06/15 12:29:10;;;;;;;6.50;1.95;;;38.70;35.30;;;;;;4918686;28;20043;-80
2022/06/15 12:31:54;;;;;;;4.63;2.25;;;38.90;34.50;;;;;;4932854;28;20074;-82
2022/06/15 12:34:51;;;;;;;6.38;2.35;;;39.10;34.10;;;;;;4938633;28;20143;-82
2022/06/15 12:37:39;;;;;;;6.15;2.38;;;39.20;33.30;;;;;;4923374;28;20484;-80
2022/06/15 12:40:08;;;;;;;3.60;2.22;;;39.10;34.10;;;;;;4915868;29;20527;-80
2022/06/15 12:42:34;;;;;;;3.53;1.30;;;39.10;33.90;;;;;;4933227;28;20053;-80
2022/06/15 12:45:05;;;;;;;5.65;2.05;;;39.20;34.70;;;;;;4922230;28;20459;-81
2022/06/15 12:47:30;;;;;;;3.97;1.60;;;39.30;34.60;;;;;;4908783;28;20031;-81
2022/06/15 12:50:04;;;;;;;6.13;1.92;;;39.60;34.40;;;;;;4903055;29;20039;-81
2022/06/15 12:52:44;;;;;;;1.60;1.15;;;39.60;34.10;;;;;;4939721;28;20041;-81
2022/06/15 12:55:43;;;;;;;5.40;2.08;;;39.70;33.30;;;;;;4903322;29;20039;-81
2022/06/15 12:58:30;;;;;;;6.50;2.05;;;39.70;33.90;;;;;;4937889;28;20050;-81
2022/06/15 13:00:59;;;;;;;4.90;1.80;;;39.90;33.30;;;;;;4920465;28;20027;-80
2022/06/15 13:03:30;;;;;;;4.40;2.10;;;40.10;33.00;;;;;;4917542;28;20040;-81
2022/06/15 13:06:20;;;;;;;5.13;2.25;;;40.10;32.30;;;;;;4934904;28;20024;-79
2022/06/15 13:08:47;;;;;;;3.10;1.50;;;40.00;32.60;;;;;;4936940;28;20506;-81
2022/06/15 13:11:14;;;;;;;5.63;2.42;;;40.00;33.50;;;;;;4914346;28;20434;-81
2022/06/15 13:13:46;;;;;;;3.97;1.50;;;40.10;33.00;;;;;;4901165;28;20027;-82
2022/06/15 13:16:34;;;;;;;3.20;1.92;;;40.30;32.60;;;;;;4916945;28;20087;-81
2022/06/15 13:18:59;;;;;;;2.92;1.52;;;40.40;30.90;;;;;;4935603;28;20098;-81
2022/06/15 13:21:29;;;;;;;4.25;1.80;;;40.20;32.20;;;;;;4900026;28;20032;-80
2022/06/15 13:24:02;;;;;;;3.13;1.80;;;40.30;32.60;;;;;;4917900;28;20039;-82